Weather at Aurora Municipal Airport

Public forecast

Using degrees Fahrenheit for public forecast. Weather courtesy of forecast.io.

Current aviation weather report (METAR) for Aurora Municipal Airport

Retrieved 2021/05/09 00:52 UTC (25 minutes ago):

KARR 090052Z 08007KT 10SM -RA OVC044 08/02 A3002 RMK AO2 RAB2358 SLP170 P0000 T00780017

Closest aviation forecast (TAF) to Aurora Municipal Airport

Closest forecast is Dupage Airport, 13.0 nm (24.1 km) NE. Retrieved 2021-05-09 00:22 UTC (55 minutes ago):

TAF KDPA 082320Z 0900/0924 10011KT P6SM FEW050 OVC080 FM090200 10009KT 6SM -RA SCT035 OVC050 FM090700 07012G22KT 5SM -RA BR SCT007 OVC015 TEMPO 0909/0913 1 1/2SM RASN BR BKN007 FM091300 06017G27KT 3SM -RA BR SCT007 OVC010 FM091800 04015G25KT P6SM BKN015 FM092100 03014G22KT P6SM BKN040